createdAt,value
2017-11-20T00:00:22.981Z,23.00
2017-11-20T00:01:23.008Z,22.20
2017-11-20T00:02:23.031Z,22.50
2017-11-20T00:03:23.056Z,20.60
2017-11-20T00:04:23.082Z,22.70
2017-11-20T00:05:23.109Z,23.30
2017-11-20T00:06:23.135Z,19.80
2017-11-20T00:07:23.170Z,20.40
2017-11-20T00:08:23.184Z,20.40
2017-11-20T00:09:23.209Z,20.30
2017-11-20T00:10:23.234Z,17.80
2017-11-20T00:11:23.259Z,15.30
2017-11-20T00:12:23.285Z,16.80
2017-11-20T00:13:23.310Z,17.30
2017-11-20T00:14:23.335Z,17.70
2017-11-20T00:15:23.361Z,19.50
2017-11-20T00:16:23.386Z,20.10
2017-11-20T00:17:23.421Z,17.30
2017-11-20T00:18:23.439Z,18.60
2017-11-20T00:19:23.462Z,22.10
2017-11-20T00:20:23.491Z,23.00
2017-11-20T00:21:23.513Z,21.10
2017-11-20T00:22:23.537Z,20.10
2017-11-20T00:23:23.565Z,20.20
2017-11-20T00:24:23.589Z,21.10
2017-11-20T00:25:23.615Z,29.70
2017-11-20T00:26:23.640Z,31.50
2017-11-20T00:27:23.663Z,27.30
2017-11-20T00:28:23.690Z,27.20
2017-11-20T00:29:23.717Z,31.50
2017-11-20T00:30:23.741Z,33.90
2017-11-20T00:31:23.766Z,32.60
2017-11-20T00:32:23.793Z,33.30
2017-11-20T00:33:23.818Z,31.60
2017-11-20T00:34:23.849Z,26.40
2017-11-20T00:35:23.869Z,26.90
2017-11-20T00:36:23.893Z,26.50
2017-11-20T00:37:23.917Z,26.40
2017-11-20T00:38:23.952Z,25.40
2017-11-20T00:39:23.970Z,26.10
2017-11-20T00:40:24.003Z,25.20
2017-11-20T00:41:24.021Z,27.70
2017-11-20T00:42:24.044Z,25.40
2017-11-20T00:43:24.071Z,26.00
2017-11-20T00:44:24.097Z,26.30
2017-11-20T00:45:24.121Z,25.80
2017-11-20T00:46:24.147Z,25.70
2017-11-20T00:47:24.173Z,25.60
2017-11-20T00:48:24.197Z,24.20
2017-11-20T00:49:24.224Z,24.70
2017-11-20T00:50:24.248Z,25.90
2017-11-20T00:51:24.274Z,31.60
2017-11-20T00:52:24.300Z,34.40
2017-11-20T00:53:24.326Z,32.80
2017-11-20T00:54:24.363Z,34.50
2017-11-20T00:55:24.376Z,34.50
2017-11-20T00:56:24.402Z,34.40
2017-11-20T00:57:24.426Z,32.50
2017-11-20T00:58:24.452Z,33.90
2017-11-20T00:59:24.476Z,31.60
2017-11-20T01:00:24.504Z,29.50
2017-11-20T01:01:24.529Z,28.00
2017-11-20T01:02:24.553Z,29.90
2017-11-20T01:03:24.578Z,30.60
2017-11-20T01:04:24.606Z,29.00
2017-11-20T01:05:24.631Z,26.80
2017-11-20T01:06:24.655Z,27.30
2017-11-20T01:07:24.681Z,25.40
2017-11-20T01:08:24.705Z,24.20
2017-11-20T01:09:24.736Z,23.40
2017-11-20T01:10:24.756Z,24.20
2017-11-20T01:11:24.781Z,22.10
2017-11-20T01:12:24.808Z,22.00
2017-11-20T01:13:24.833Z,21.90
2017-11-20T01:14:24.862Z,22.00
2017-11-20T01:15:24.883Z,20.70
2017-11-20T01:16:24.910Z,21.60
2017-11-20T01:17:24.935Z,22.90
2017-11-20T01:18:24.959Z,22.50
2017-11-20T01:19:24.984Z,23.00
2017-11-20T01:20:25.011Z,22.10
2017-11-20T01:21:25.036Z,21.80
2017-11-20T01:22:25.067Z,21.30
2017-11-20T01:23:25.087Z,22.20
2017-11-20T01:24:25.113Z,21.80
2017-11-20T01:25:25.139Z,22.00
2017-11-20T01:26:25.180Z,21.40
2017-11-20T01:27:25.188Z,23.40
2017-11-20T01:28:25.216Z,24.50
2017-11-20T01:29:25.241Z,23.00
2017-11-20T01:30:25.267Z,23.40
2017-11-20T01:31:25.291Z,23.00
2017-11-20T01:32:25.317Z,23.30
2017-11-20T01:33:25.343Z,23.40
2017-11-20T01:34:25.369Z,24.40
2017-11-20T01:35:25.394Z,24.40
2017-11-20T01:36:25.419Z,26.30
2017-11-20T01:37:25.449Z,27.70
2017-11-20T01:38:25.471Z,28.40
2017-11-20T01:39:25.496Z,25.40
2017-11-20T01:40:25.521Z,24.80
2017-11-20T01:41:25.548Z,27.20
2017-11-20T01:42:25.573Z,26.10
2017-11-20T01:43:25.597Z,28.80
2017-11-20T01:44:25.624Z,31.70
2017-11-20T01:45:25.651Z,34.50
2017-11-20T01:46:25.675Z,36.40
2017-11-20T01:47:25.702Z,35.90
2017-11-20T01:48:25.726Z,36.90
2017-11-20T01:49:25.803Z,37.20
2017-11-20T01:50:25.778Z,40.20
2017-11-20T01:51:25.803Z,36.00
2017-11-20T01:52:25.833Z,37.60
2017-11-20T01:53:25.855Z,37.10
2017-11-20T01:54:25.879Z,35.60
2017-11-20T01:55:25.905Z,38.80
2017-11-20T01:56:25.931Z,39.80
2017-11-20T01:57:25.957Z,40.20
2017-11-20T01:58:25.983Z,37.80
2017-11-20T01:59:26.009Z,37.60
2017-11-20T02:00:26.034Z,36.20
2017-11-20T02:01:26.059Z,36.10
2017-11-20T02:02:26.085Z,41.00
2017-11-20T02:03:26.110Z,36.30
2017-11-20T02:04:26.136Z,36.80
2017-11-20T02:05:26.163Z,37.80
2017-11-20T02:06:26.188Z,34.00
2017-11-20T02:07:26.215Z,32.50
2017-11-20T02:08:26.239Z,33.80
2017-11-20T02:09:26.266Z,34.40
2017-11-20T02:10:26.290Z,35.00
2017-11-20T02:11:26.317Z,38.30
2017-11-20T02:12:26.341Z,40.10
2017-11-20T02:13:26.368Z,38.80
2017-11-20T02:14:26.393Z,35.50
2017-11-20T02:15:26.418Z,35.10
2017-11-20T02:16:26.446Z,34.40
2017-11-20T02:17:26.478Z,32.50
2017-11-20T02:18:26.496Z,33.80
2017-11-20T02:19:26.521Z,30.90
2017-11-20T02:20:26.548Z,29.50
2017-11-20T02:21:26.573Z,29.30
2017-11-20T02:22:26.597Z,29.20
2017-11-20T02:23:26.625Z,31.90
2017-11-20T02:24:26.651Z,31.80
2017-11-20T02:25:26.676Z,33.10
2017-11-20T02:26:26.700Z,32.70
2017-11-20T02:27:26.727Z,30.80
2017-11-20T02:28:26.764Z,30.40
2017-11-20T02:29:26.782Z,32.10
2017-11-20T02:30:26.804Z,33.80
2017-11-20T02:31:26.829Z,32.60
2017-11-20T02:32:26.856Z,34.90
2017-11-20T02:33:26.881Z,34.70
2017-11-20T02:34:26.907Z,33.20
2017-11-20T02:35:26.933Z,28.60
2017-11-20T02:36:26.957Z,26.30
2017-11-20T02:37:26.982Z,26.50
2017-11-20T02:38:27.007Z,30.60
2017-11-20T02:39:27.035Z,28.70
2017-11-20T02:40:27.060Z,28.70
2017-11-20T02:41:27.085Z,30.60
2017-11-20T02:42:27.109Z,31.00
2017-11-20T02:43:27.139Z,31.10
2017-11-20T02:44:27.161Z,34.10
2017-11-20T02:45:27.187Z,33.80
2017-11-20T02:46:27.213Z,34.50
2017-11-20T02:47:27.238Z,32.70
2017-11-20T02:48:27.284Z,31.70
2017-11-20T02:49:27.289Z,34.80
2017-11-20T02:50:27.318Z,36.80
2017-11-20T02:51:27.340Z,33.40
2017-11-20T02:52:27.366Z,31.60
2017-11-20T02:53:27.392Z,30.80
2017-11-20T02:54:27.417Z,32.70
2017-11-20T02:55:27.446Z,35.30
2017-11-20T02:56:27.470Z,34.60
2017-11-20T02:57:27.496Z,34.30
2017-11-20T02:58:27.518Z,32.90
2017-11-20T02:59:27.546Z,33.80
2017-11-20T03:00:27.572Z,32.60
2017-11-20T03:01:27.595Z,30.50
2017-11-20T03:02:27.625Z,30.70
2017-11-20T03:03:27.646Z,32.50
2017-11-20T03:04:27.671Z,32.80
2017-11-20T03:05:27.697Z,33.40
2017-11-20T03:06:27.722Z,30.10
2017-11-20T03:07:27.748Z,31.50
2017-11-20T03:08:27.772Z,29.00
2017-11-20T03:09:27.799Z,28.70
2017-11-20T03:10:27.822Z,27.60
2017-11-20T03:11:27.850Z,27.10
2017-11-20T03:12:27.875Z,28.40
2017-11-20T03:13:27.900Z,28.00
2017-11-20T03:14:27.926Z,28.80
2017-11-20T03:15:27.951Z,26.90
2017-11-20T03:16:27.977Z,28.30
2017-11-20T03:17:28.003Z,28.80
2017-11-20T03:18:28.027Z,28.40
2017-11-20T03:19:28.053Z,27.20
2017-11-20T03:20:28.077Z,26.80
2017-11-20T03:21:28.103Z,27.70
2017-11-20T03:22:28.130Z,29.20
2017-11-20T03:23:28.163Z,29.30
2017-11-20T03:24:28.180Z,28.80
2017-11-20T03:25:28.207Z,31.30
2017-11-20T03:26:28.230Z,30.70
2017-11-20T03:27:28.256Z,32.00
2017-11-20T03:28:28.283Z,30.80
2017-11-20T03:29:28.307Z,31.70
2017-11-20T03:30:28.334Z,31.20
2017-11-20T03:31:28.361Z,29.90
2017-11-20T03:32:28.387Z,29.60
2017-11-20T03:33:28.409Z,27.00
2017-11-20T03:34:28.435Z,27.60
2017-11-20T03:35:28.459Z,27.70
2017-11-20T03:36:28.485Z,25.90
2017-11-20T03:37:28.511Z,26.60
2017-11-20T03:38:28.535Z,26.10
2017-11-20T03:39:28.560Z,24.80
2017-11-20T03:40:28.586Z,24.70
2017-11-20T03:41:28.611Z,25.40
2017-11-20T03:42:28.636Z,25.30
2017-11-20T03:43:28.665Z,25.10
2017-11-20T03:44:28.705Z,25.70
2017-11-20T03:45:28.713Z,27.00
2017-11-20T03:46:28.738Z,28.00
2017-11-20T03:47:28.765Z,29.20
2017-11-20T03:48:28.789Z,30.70
2017-11-20T03:49:28.814Z,30.80
2017-11-20T03:50:28.838Z,27.20
2017-11-20T03:51:28.864Z,26.10
2017-11-20T03:52:28.890Z,25.60
2017-11-20T03:53:28.916Z,27.20
2017-11-20T03:54:28.941Z,24.80
2017-11-20T03:55:28.966Z,26.00
2017-11-20T03:56:28.990Z,25.60
2017-11-20T03:57:29.017Z,25.40
2017-11-20T03:58:29.041Z,24.00
2017-11-20T03:59:29.067Z,25.60
2017-11-20T04:00:29.093Z,26.40
2017-11-20T04:01:29.119Z,26.40
2017-11-20T04:02:29.143Z,25.80
2017-11-20T04:03:29.169Z,24.50
2017-11-20T04:04:29.197Z,25.40
2017-11-20T04:05:29.220Z,24.00
2017-11-20T04:06:29.245Z,24.10
2017-11-20T04:07:29.273Z,25.30
2017-11-20T04:08:29.298Z,25.10
2017-11-20T04:09:29.321Z,25.80
2017-11-20T04:10:29.346Z,26.70
2017-11-20T04:11:29.371Z,26.10
2017-11-20T04:12:29.396Z,27.20
2017-11-20T04:13:29.423Z,27.80
2017-11-20T04:14:29.448Z,26.80
2017-11-20T04:15:29.473Z,25.80
2017-11-20T04:16:29.498Z,25.20
2017-11-20T04:17:29.524Z,26.10
2017-11-20T04:18:29.549Z,25.40
2017-11-20T04:19:29.574Z,24.90
2017-11-20T04:20:29.599Z,24.70
2017-11-20T04:21:29.626Z,24.80
2017-11-20T04:22:29.650Z,23.60
2017-11-20T04:23:29.675Z,24.60
2017-11-20T04:24:29.701Z,24.70
2017-11-20T04:25:29.727Z,24.20
2017-11-20T04:26:29.750Z,24.00
2017-11-20T04:27:29.776Z,22.80
2017-11-20T04:28:29.801Z,22.50
2017-11-20T04:29:29.827Z,25.10
2017-11-20T04:30:29.851Z,24.60
2017-11-20T04:31:29.876Z,24.50
2017-11-20T04:32:29.903Z,24.50
2017-11-20T04:33:29.929Z,25.50
2017-11-20T04:34:29.952Z,25.50
2017-11-20T04:35:29.978Z,26.70
2017-11-20T04:36:30.003Z,26.40
2017-11-20T04:37:30.029Z,25.20
2017-11-20T04:38:30.054Z,24.30
2017-11-20T04:39:30.084Z,25.40
2017-11-20T04:40:30.109Z,24.40
2017-11-20T04:41:30.130Z,24.70
2017-11-20T04:42:30.161Z,24.30
2017-11-20T04:43:30.180Z,23.80
2017-11-20T04:44:30.202Z,24.10
2017-11-20T04:45:30.228Z,23.90
2017-11-20T04:46:30.275Z,24.10
2017-11-20T04:47:30.278Z,24.50
2017-11-20T04:48:30.304Z,23.50
2017-11-20T04:49:30.335Z,24.90
2017-11-20T04:50:30.354Z,23.90
2017-11-20T04:51:30.379Z,23.60
2017-11-20T04:52:30.405Z,23.40
2017-11-20T04:53:30.431Z,24.00
2017-11-20T04:54:30.472Z,25.20
2017-11-20T04:55:30.479Z,25.90
2017-11-20T04:56:30.505Z,24.80
2017-11-20T04:57:30.532Z,23.90
2017-11-20T04:58:30.555Z,25.00
2017-11-20T04:59:30.586Z,23.20
2017-11-20T05:00:30.606Z,24.80
2017-11-20T05:01:30.631Z,24.10
2017-11-20T05:02:30.655Z,24.40
2017-11-20T05:03:30.681Z,26.10
2017-11-20T05:04:30.706Z,24.90
2017-11-20T05:05:30.732Z,24.90
2017-11-20T05:06:30.755Z,24.00
2017-11-20T05:07:30.784Z,25.40
2017-11-20T05:08:30.806Z,23.70
2017-11-20T05:09:30.830Z,26.00
2017-11-20T05:10:30.855Z,24.30
2017-11-20T05:11:30.880Z,24.60
2017-11-20T05:12:30.908Z,23.80
2017-11-20T05:13:30.932Z,23.50
2017-11-20T05:14:30.957Z,22.50
2017-11-20T05:15:30.981Z,22.50
2017-11-20T05:16:31.006Z,23.10
2017-11-20T05:17:31.031Z,21.00
2017-11-20T05:18:31.056Z,21.50
2017-11-20T05:19:31.080Z,21.00
2017-11-20T05:20:31.104Z,21.80
2017-11-20T05:21:31.132Z,21.00
2017-11-20T05:22:31.155Z,21.80
2017-11-20T05:23:31.180Z,22.30
2017-11-20T05:24:31.205Z,20.70
2017-11-20T05:25:31.229Z,22.20
2017-11-20T05:26:31.255Z,22.40
2017-11-20T05:27:31.280Z,22.30
2017-11-20T05:28:31.305Z,23.20
2017-11-20T05:29:31.329Z,21.90
2017-11-20T05:30:31.354Z,22.40
2017-11-20T05:31:31.379Z,21.50
2017-11-20T05:32:31.403Z,22.30
2017-11-20T05:33:31.428Z,20.90
2017-11-20T05:34:31.453Z,21.50
2017-11-20T05:35:31.479Z,23.50
2017-11-20T05:36:31.502Z,23.00
2017-11-20T05:37:31.530Z,23.10
2017-11-20T05:38:31.554Z,23.00
2017-11-20T05:39:31.578Z,23.10
2017-11-20T05:40:31.603Z,24.60
2017-11-20T05:41:31.629Z,25.10
2017-11-20T05:42:31.652Z,24.70
2017-11-20T05:43:31.678Z,25.90
2017-11-20T05:44:31.703Z,26.30
2017-11-20T05:45:31.729Z,26.50
2017-11-20T05:46:31.773Z,28.90
2017-11-20T05:48:31.800Z,26.80
2017-11-20T05:49:31.826Z,25.40
2017-11-20T05:50:31.851Z,22.20
2017-11-20T05:51:31.876Z,21.80
2017-11-20T05:52:31.901Z,21.30
2017-11-20T05:53:31.926Z,21.50
2017-11-20T05:54:31.951Z,22.10
2017-11-20T05:55:31.975Z,19.80
2017-11-20T05:56:32.000Z,21.90
2017-11-20T05:57:32.025Z,21.10
2017-11-20T05:58:32.050Z,21.40
2017-11-20T05:59:32.085Z,20.50
2017-11-20T06:00:32.103Z,21.30
2017-11-20T06:01:32.133Z,21.30
2017-11-20T06:02:32.150Z,21.00
2017-11-20T06:03:32.174Z,21.20
2017-11-20T06:04:32.199Z,22.30
2017-11-20T06:05:32.222Z,24.10
2017-11-20T06:06:32.247Z,23.80
2017-11-20T06:07:32.273Z,25.70
2017-11-20T06:08:32.298Z,24.60
2017-11-20T06:09:32.323Z,24.30
2017-11-20T06:10:32.350Z,24.50
2017-11-20T06:11:32.371Z,24.50
2017-11-20T06:12:32.398Z,24.80
2017-11-20T06:13:32.421Z,23.00
2017-11-20T06:14:32.447Z,22.10
2017-11-20T06:15:32.471Z,23.20
2017-11-20T06:16:32.496Z,21.80
2017-11-20T06:17:32.522Z,21.10
2017-11-20T06:18:32.545Z,21.70
2017-11-20T06:19:32.570Z,21.50
2017-11-20T06:20:32.594Z,21.20
2017-11-20T06:21:32.620Z,20.70
2017-11-20T06:22:32.645Z,22.30
2017-11-20T06:23:32.670Z,23.10
2017-11-20T06:24:32.693Z,23.20
2017-11-20T06:25:32.721Z,23.40
2017-11-20T06:26:32.744Z,24.20
2017-11-20T06:27:32.769Z,23.80
2017-11-20T06:28:32.794Z,25.30
2017-11-20T06:29:32.820Z,25.80
2017-11-20T06:30:32.844Z,24.50
2017-11-20T06:31:32.869Z,23.40
2017-11-20T06:32:32.893Z,25.20
2017-11-20T06:33:32.919Z,25.20
2017-11-20T06:34:32.983Z,25.50
2017-11-20T06:35:32.967Z,25.60
2017-11-20T06:36:32.994Z,26.90
2017-11-20T06:37:33.019Z,27.30
2017-11-20T06:38:33.043Z,27.50
2017-11-20T06:39:33.073Z,27.40
2017-11-20T06:40:33.093Z,28.10
2017-11-20T06:41:33.119Z,28.60
2017-11-20T06:42:33.160Z,28.70
2017-11-20T06:43:33.168Z,28.70
2017-11-20T06:44:33.192Z,28.30
2017-11-20T06:45:33.220Z,27.60
2017-11-20T06:46:33.242Z,27.60
2017-11-20T06:47:33.268Z,28.60
2017-11-20T06:48:33.294Z,27.10
2017-11-20T06:49:33.334Z,27.00
2017-11-20T06:50:33.343Z,27.00
2017-11-20T06:51:33.367Z,27.40
2017-11-20T06:52:33.393Z,28.10
2017-11-20T06:53:33.421Z,26.10
2017-11-20T06:54:33.448Z,27.50
2017-11-20T06:55:33.468Z,28.00
2017-11-20T06:56:33.494Z,26.90
2017-11-20T06:57:33.519Z,29.30
2017-11-20T06:58:33.559Z,30.40
2017-11-20T06:59:33.571Z,40.70
2017-11-20T07:00:33.593Z,33.60
2017-11-20T07:01:33.620Z,42.50
2017-11-20T07:02:33.644Z,36.50
2017-11-20T07:03:33.671Z,33.80
2017-11-20T07:04:33.701Z,30.70
2017-11-20T07:05:33.721Z,29.90
2017-11-20T07:06:33.750Z,29.40
2017-11-20T07:07:33.770Z,25.80
2017-11-20T07:08:33.796Z,23.90
2017-11-20T07:09:33.824Z,22.10
2017-11-20T07:10:33.846Z,23.90
2017-11-20T07:11:33.872Z,22.90
2017-11-20T07:12:33.899Z,23.10
2017-11-20T07:13:33.923Z,25.50
2017-11-20T07:14:33.949Z,29.90
2017-11-20T07:15:33.973Z,27.00
2017-11-20T07:16:33.999Z,25.40
2017-11-20T07:17:34.025Z,26.90
2017-11-20T07:18:34.048Z,29.40
2017-11-20T07:19:34.073Z,28.70
2017-11-20T07:20:34.101Z,26.30
2017-11-20T07:21:34.127Z,26.10
2017-11-20T07:22:34.150Z,25.90
2017-11-20T07:23:34.193Z,27.00
2017-11-20T07:24:34.203Z,26.60
2017-11-20T07:25:34.241Z,25.60
2017-11-20T07:26:34.253Z,24.70
2017-11-20T07:27:34.279Z,24.50
2017-11-20T07:28:34.314Z,25.40
2017-11-20T07:29:34.329Z,25.90
2017-11-20T07:30:34.354Z,26.90
2017-11-20T07:31:34.380Z,27.00
2017-11-20T07:32:34.406Z,26.30
2017-11-20T07:33:34.432Z,24.00
2017-11-20T07:34:34.457Z,24.80
2017-11-20T07:35:34.483Z,24.30
2017-11-20T07:36:34.508Z,24.00
2017-11-20T07:37:34.536Z,25.60
2017-11-20T07:38:34.558Z,24.40
2017-11-20T07:39:34.584Z,22.90
2017-11-20T07:40:34.611Z,24.60
2017-11-20T07:41:34.637Z,24.80
2017-11-20T07:42:34.664Z,24.90
2017-11-20T07:43:34.692Z,28.20
2017-11-20T07:44:34.714Z,27.40
2017-11-20T07:45:34.740Z,27.30
2017-11-20T07:46:34.768Z,28.50
2017-11-20T07:47:34.791Z,27.70
2017-11-20T07:48:34.818Z,30.00
2017-11-20T07:49:34.843Z,29.10
2017-11-20T07:50:34.867Z,28.10
2017-11-20T07:51:34.893Z,28.20
2017-11-20T07:52:34.923Z,28.40
2017-11-20T07:53:34.947Z,29.20
2017-11-20T07:54:34.972Z,30.20
2017-11-20T07:55:34.998Z,28.20
2017-11-20T07:56:35.023Z,27.70
2017-11-20T07:57:35.050Z,28.40
2017-11-20T07:58:35.077Z,27.30
2017-11-20T07:59:35.102Z,28.10
2017-11-20T08:00:35.128Z,29.60
2017-11-20T08:01:35.157Z,30.30
2017-11-20T08:02:35.190Z,28.90
2017-11-20T08:03:35.205Z,29.60
2017-11-20T08:04:35.232Z,28.60
2017-11-20T08:05:35.257Z,26.30
2017-11-20T08:06:35.283Z,26.70
2017-11-20T08:07:35.309Z,29.60
2017-11-20T08:08:35.336Z,30.60
2017-11-20T08:09:35.364Z,29.40
2017-11-20T08:10:35.387Z,28.40
2017-11-20T08:11:35.414Z,27.50
2017-11-20T08:12:35.440Z,28.40
2017-11-20T08:13:35.467Z,27.30
2017-11-20T08:14:35.492Z,27.50
2017-11-20T08:15:35.536Z,26.90
2017-11-20T08:16:35.543Z,27.40
2017-11-20T08:17:35.572Z,26.50
2017-11-20T08:18:35.602Z,26.50
2017-11-20T08:19:35.622Z,26.40
2017-11-20T08:20:35.698Z,27.30
2017-11-20T08:21:35.673Z,25.60
2017-11-20T08:22:35.700Z,25.00
2017-11-20T08:23:35.732Z,27.60
2017-11-20T08:24:35.751Z,28.50
2017-11-20T08:25:35.780Z,28.70
2017-11-20T08:26:35.805Z,27.70
2017-11-20T08:27:35.831Z,29.90
2017-11-20T08:28:35.857Z,29.10
2017-11-20T08:29:35.883Z,29.50
2017-11-20T08:30:35.910Z,29.90
2017-11-20T08:31:35.937Z,29.50
2017-11-20T08:32:35.964Z,31.20
2017-11-20T08:33:35.989Z,31.80
2017-11-20T08:34:36.022Z,32.60
2017-11-20T08:35:36.045Z,32.40
2017-11-20T08:36:36.069Z,32.90
2017-11-20T08:37:36.094Z,34.00
2017-11-20T08:38:36.119Z,33.60
2017-11-20T08:39:36.146Z,33.70
2017-11-20T08:40:36.173Z,42.00
2017-11-20T08:41:36.198Z,49.00
2017-11-20T08:42:36.224Z,43.00
2017-11-20T08:43:36.256Z,40.20
2017-11-20T08:44:36.281Z,41.80
2017-11-20T08:45:36.306Z,42.80
2017-11-20T08:46:36.330Z,41.20
2017-11-20T08:47:36.358Z,40.70
2017-11-20T08:48:36.388Z,39.30
2017-11-20T08:49:36.410Z,38.90
2017-11-20T08:50:36.436Z,37.00
2017-11-20T08:51:36.463Z,35.70
2017-11-20T08:52:36.492Z,35.10
2017-11-20T08:53:36.517Z,34.30
2017-11-20T08:54:36.542Z,31.80
2017-11-20T08:55:36.572Z,30.30
2017-11-20T08:56:36.596Z,30.40
2017-11-20T08:57:36.622Z,30.70
2017-11-20T08:58:36.648Z,30.60
2017-11-20T08:59:36.676Z,32.50
2017-11-20T09:00:36.703Z,31.30
2017-11-20T09:01:36.729Z,31.40
2017-11-20T09:02:36.755Z,31.90
2017-11-20T09:03:36.786Z,32.30
2017-11-20T09:04:36.808Z,32.60
2017-11-20T09:05:36.836Z,30.10
2017-11-20T09:06:36.862Z,29.40
2017-11-20T09:07:36.889Z,29.60
2017-11-20T09:08:36.918Z,31.60
2017-11-20T09:09:36.945Z,29.80
2017-11-20T09:10:36.973Z,27.90
2017-11-20T09:11:37.000Z,28.40
2017-11-20T09:12:37.030Z,28.10
2017-11-20T09:13:37.055Z,26.90
2017-11-20T09:14:37.082Z,27.30
2017-11-20T09:15:37.113Z,28.30
2017-11-20T09:16:37.140Z,26.50
2017-11-20T09:17:37.168Z,26.20
2017-11-20T09:18:37.194Z,26.90
2017-11-20T09:19:37.222Z,25.80
2017-11-20T09:20:37.250Z,25.00
2017-11-20T09:21:37.282Z,24.70
2017-11-20T09:22:37.307Z,25.30
2017-11-20T09:23:37.335Z,25.10
2017-11-20T09:24:37.365Z,24.40
2017-11-20T09:25:37.392Z,24.00
2017-11-20T09:26:37.420Z,24.10
2017-11-20T09:27:37.452Z,23.50
2017-11-20T09:28:37.478Z,27.00
2017-11-20T09:29:37.507Z,26.50
2017-11-20T09:30:37.537Z,27.50
2017-11-20T09:31:37.564Z,27.50
2017-11-20T09:32:37.591Z,27.50
2017-11-20T09:33:37.623Z,28.60
2017-11-20T09:34:37.650Z,27.60
2017-11-20T09:35:37.679Z,28.90
2017-11-20T09:36:37.709Z,29.50
2017-11-20T09:37:37.738Z,29.50
2017-11-20T09:38:37.766Z,29.50
2017-11-20T09:39:37.797Z,29.80
2017-11-20T09:40:37.828Z,30.60
2017-11-20T09:41:37.860Z,30.20
2017-11-20T09:42:37.885Z,31.00
2017-11-20T09:43:37.912Z,30.10
2017-11-20T09:44:37.943Z,30.70
2017-11-20T09:45:37.977Z,28.90
2017-11-20T09:46:38.003Z,29.20
2017-11-20T09:47:38.031Z,29.20
2017-11-20T09:48:38.061Z,30.10
2017-11-20T09:49:38.091Z,28.40
2017-11-20T09:50:38.120Z,27.90
2017-11-20T09:51:38.148Z,28.30
2017-11-20T09:52:38.179Z,27.20
2017-11-20T09:53:38.210Z,26.60
2017-11-20T09:54:38.238Z,26.40
2017-11-20T09:55:38.270Z,27.30
2017-11-20T09:56:38.299Z,26.20
2017-11-20T09:57:38.328Z,25.80
2017-11-20T09:58:38.366Z,29.40
2017-11-20T09:59:38.387Z,29.40
2017-11-20T10:00:38.418Z,31.30
2017-11-20T10:01:38.447Z,30.50
2017-11-20T10:02:38.477Z,26.40
2017-11-20T10:03:38.507Z,25.40
2017-11-20T10:04:38.542Z,25.20
2017-11-20T10:05:38.572Z,26.90
2017-11-20T10:06:38.597Z,27.80
2017-11-20T10:07:38.626Z,26.70
2017-11-20T10:08:38.655Z,26.70
2017-11-20T10:09:38.684Z,26.20
2017-11-20T10:10:38.713Z,26.10
2017-11-20T10:11:38.743Z,25.90
2017-11-20T10:12:38.773Z,25.50
2017-11-20T10:13:38.804Z,24.90
2017-11-20T10:14:38.832Z,24.20
2017-11-20T10:15:38.861Z,23.70
2017-11-20T10:16:38.891Z,26.10
2017-11-20T10:17:38.921Z,26.10
2017-11-20T10:18:38.948Z,26.70
2017-11-20T10:19:38.979Z,27.40
2017-11-20T10:20:39.008Z,26.60
2017-11-20T10:21:39.038Z,25.50
2017-11-20T10:22:39.065Z,25.90
2017-11-20T10:23:39.097Z,24.60
2017-11-20T10:24:39.125Z,24.70
2017-11-20T10:25:39.176Z,23.90
2017-11-20T10:26:39.184Z,24.70
2017-11-20T10:27:39.220Z,25.30
2017-11-20T10:28:39.249Z,24.10
2017-11-20T10:29:39.272Z,24.20
2017-11-20T10:30:39.302Z,23.50
2017-11-20T10:31:39.331Z,25.40
2017-11-20T10:32:39.363Z,22.50
2017-11-20T10:33:39.391Z,23.30
2017-11-20T10:34:39.418Z,22.20
2017-11-20T10:35:39.448Z,20.20
2017-11-20T10:36:39.478Z,19.60
2017-11-20T10:37:39.507Z,19.60
2017-11-20T10:38:39.536Z,19.80
2017-11-20T10:39:39.570Z,17.10
2017-11-20T10:40:39.594Z,16.60
2017-11-20T10:41:39.625Z,17.20
2017-11-20T10:42:39.652Z,17.30
2017-11-20T10:43:39.683Z,16.10
2017-11-20T10:44:39.713Z,15.90
2017-11-20T10:45:39.741Z,13.60
2017-11-20T10:46:39.771Z,14.20
2017-11-20T10:47:39.800Z,14.60
2017-11-20T10:48:39.829Z,14.70
2017-11-20T10:49:39.862Z,14.90
2017-11-20T10:50:39.887Z,14.50
2017-11-20T10:51:39.918Z,14.50
2017-11-20T10:52:39.949Z,14.30
2017-11-20T10:53:39.977Z,13.60
2017-11-20T10:54:40.007Z,14.50
2017-11-20T10:55:40.035Z,13.80
2017-11-20T10:56:40.065Z,13.90
2017-11-20T10:57:40.095Z,14.20
2017-11-20T10:58:40.125Z,13.20
2017-11-20T10:59:40.155Z,14.10
2017-11-20T11:00:40.182Z,13.20
2017-11-20T11:01:40.215Z,13.10
2017-11-20T11:02:40.241Z,13.40
2017-11-20T11:03:40.273Z,13.20
2017-11-20T11:04:40.302Z,13.10
2017-11-20T11:05:40.331Z,13.20
2017-11-20T11:06:40.360Z,13.40
2017-11-20T11:07:40.389Z,13.90
2017-11-20T11:08:40.418Z,13.30
2017-11-20T11:09:40.448Z,13.00
2017-11-20T11:10:40.477Z,14.10
2017-11-20T11:11:40.508Z,12.50
2017-11-20T11:12:40.541Z,12.90
2017-11-20T11:13:40.568Z,12.40
2017-11-20T11:14:40.601Z,12.70
2017-11-20T11:15:40.626Z,13.30
2017-11-20T11:16:40.657Z,12.00
2017-11-20T11:17:40.686Z,12.60
2017-11-20T11:18:40.716Z,12.40
2017-11-20T11:19:40.745Z,13.20
2017-11-20T11:20:40.773Z,13.20
2017-11-20T11:21:40.804Z,12.20
2017-11-20T11:22:40.833Z,12.80
2017-11-20T11:23:40.862Z,13.40
2017-11-20T11:24:40.892Z,12.50
2017-11-20T11:25:40.923Z,13.30
2017-11-20T11:26:40.951Z,13.70
2017-11-20T11:27:40.979Z,13.20
2017-11-20T11:28:41.010Z,13.90
2017-11-20T11:29:41.039Z,12.50
2017-11-20T11:30:41.067Z,12.30
2017-11-20T11:31:41.097Z,12.60
2017-11-20T11:32:41.127Z,13.30
2017-11-20T11:33:41.156Z,12.60
2017-11-20T11:34:41.185Z,13.00
2017-11-20T11:35:41.214Z,11.80
2017-11-20T11:36:41.245Z,12.30
2017-11-20T11:37:41.274Z,12.50
2017-11-20T11:38:41.303Z,12.20
2017-11-20T11:39:41.336Z,11.90
2017-11-20T11:40:41.378Z,13.20
2017-11-20T11:41:41.394Z,12.90
2017-11-20T11:42:41.425Z,12.90
2017-11-20T11:43:41.454Z,12.40
2017-11-20T11:44:41.484Z,12.90
2017-11-20T11:45:41.516Z,11.90
2017-11-20T11:46:41.546Z,11.90
2017-11-20T11:47:41.575Z,12.00
2017-11-20T11:48:41.605Z,12.40
2017-11-20T11:49:41.635Z,12.50
2017-11-20T11:50:41.669Z,12.00
2017-11-20T11:51:41.697Z,11.80
2017-11-20T11:52:41.728Z,13.00
2017-11-20T11:53:41.759Z,11.80
2017-11-20T11:54:41.789Z,12.60
2017-11-20T11:55:41.825Z,12.90
2017-11-20T11:56:41.851Z,12.70
2017-11-20T11:57:41.880Z,11.60
2017-11-20T11:58:41.911Z,13.10
2017-11-20T11:59:41.943Z,12.40
2017-11-20T12:00:41.974Z,11.90
2017-11-20T12:01:42.006Z,11.90
2017-11-20T12:02:42.036Z,12.30
2017-11-20T12:03:42.066Z,12.30
2017-11-20T12:04:42.099Z,12.00
2017-11-20T12:05:42.137Z,11.60
2017-11-20T12:06:42.161Z,11.90
2017-11-20T12:07:42.191Z,11.40
2017-11-20T12:08:42.225Z,11.50
2017-11-20T12:09:42.255Z,11.10
2017-11-20T12:10:42.285Z,12.70
2017-11-20T12:11:42.316Z,11.60
2017-11-20T12:12:42.349Z,11.70
2017-11-20T12:13:42.380Z,11.70
2017-11-20T12:14:42.410Z,11.50
2017-11-20T12:15:42.442Z,12.10
2017-11-20T12:16:42.471Z,11.60
2017-11-20T12:17:42.503Z,11.70
2017-11-20T12:18:42.532Z,11.40
2017-11-20T12:19:42.569Z,11.70
2017-11-20T12:20:42.595Z,11.90
2017-11-20T12:21:42.626Z,11.90
2017-11-20T12:22:42.656Z,11.70
2017-11-20T12:23:42.686Z,12.20
2017-11-20T12:24:42.718Z,11.20
2017-11-20T12:25:42.746Z,11.90
2017-11-20T12:26:42.778Z,12.70
2017-11-20T12:27:42.809Z,12.60
2017-11-20T12:28:42.843Z,12.30
2017-11-20T12:29:42.869Z,12.20
2017-11-20T12:30:42.897Z,11.90
2017-11-20T12:31:42.928Z,12.00
2017-11-20T12:32:42.959Z,11.30
2017-11-20T12:33:42.990Z,12.30
2017-11-20T12:34:43.039Z,12.00
2017-11-20T12:35:43.049Z,11.90
2017-11-20T12:36:43.079Z,11.70
2017-11-20T12:37:43.109Z,11.80
2017-11-20T12:38:43.137Z,11.70
2017-11-20T12:39:43.168Z,11.40
2017-11-20T12:40:43.199Z,11.90
2017-11-20T12:41:43.228Z,12.30
2017-11-20T12:42:43.258Z,11.90
2017-11-20T12:43:43.287Z,12.70
2017-11-20T12:44:43.324Z,11.80
2017-11-20T12:45:43.349Z,12.00
2017-11-20T12:46:43.375Z,12.40
2017-11-20T12:47:43.405Z,13.50
2017-11-20T12:48:43.436Z,12.70
2017-11-20T12:49:43.467Z,12.60
2017-11-20T12:50:43.495Z,12.30
2017-11-20T12:51:43.525Z,12.60
2017-11-20T12:52:43.555Z,13.50
2017-11-20T12:53:43.584Z,13.80